createdAt,value
2022-09-11T00:01:28.513Z,86.37
2022-09-11T00:04:20.579Z,86.75
2022-09-11T00:07:12.827Z,86.64
2022-09-11T00:10:05.204Z,86.34
2022-09-11T00:12:57.324Z,86.60
2022-09-11T00:15:41.034Z,86.58
2022-09-11T00:18:36.335Z,86.40
2022-09-11T00:21:22.898Z,86.52
2022-09-11T00:23:54.768Z,86.66
2022-09-11T00:26:35.761Z,86.71
2022-09-11T00:29:08.135Z,86.83
2022-09-11T00:31:40.062Z,86.78
2022-09-11T00:34:14.002Z,86.81
2022-09-11T00:36:45.680Z,87.07
2022-09-11T00:39:18.141Z,87.10
2022-09-11T00:41:51.725Z,87.30
2022-09-11T00:45:00.896Z,87.28
2022-09-11T00:47:33.590Z,87.45
2022-09-11T00:50:13.668Z,87.74
2022-09-11T00:52:55.558Z,88.05
2022-09-11T00:55:33.156Z,88.35
2022-09-11T00:58:08.541Z,88.59
2022-09-11T01:00:46.077Z,88.74
2022-09-11T01:03:19.549Z,88.74
2022-09-11T01:05:55.269Z,89.05
2022-09-11T01:08:36.509Z,89.17
2022-09-11T01:11:30.713Z,89.39
2022-09-11T01:14:14.464Z,89.23
2022-09-11T01:17:19.513Z,89.55
2022-09-11T01:20:28.464Z,89.73
2022-09-11T01:23:49.339Z,89.90
2022-09-11T01:26:48.832Z,90.08
2022-09-11T01:29:46.041Z,90.22
2022-09-11T01:32:46.293Z,90.49
2022-09-11T01:35:51.129Z,90.44
2022-09-11T01:38:49.291Z,90.39
2022-09-11T01:41:48.711Z,90.27
2022-09-11T01:44:27.395Z,90.21
2022-09-11T01:47:13.207Z,90.38
2022-09-11T01:49:49.172Z,90.42
2022-09-11T01:52:46.236Z,90.41
2022-09-11T01:55:45.449Z,90.43
2022-09-11T01:58:39.001Z,90.36
2022-09-11T02:01:34.983Z,90.33
2022-09-11T02:04:31.246Z,90.48
2022-09-11T02:07:26.535Z,90.41
2022-09-11T02:10:23.166Z,90.41
2022-09-11T02:13:27.566Z,90.39
2022-09-11T02:16:24.039Z,90.43
2022-09-11T02:19:18.453Z,90.56
2022-09-11T02:22:03.102Z,90.46
2022-09-11T02:24:56.318Z,90.58
2022-09-11T02:27:40.778Z,90.36
2022-09-11T02:30:32.987Z,90.53
2022-09-11T02:33:33.352Z,90.45
2022-09-11T02:36:42.427Z,90.45
2022-09-11T02:40:00.465Z,90.32
2022-09-11T02:43:09.859Z,90.63
2022-09-11T02:46:18.051Z,90.60
2022-09-11T02:49:16.593Z,90.74
2022-09-11T02:52:21.511Z,90.54
2022-09-11T02:55:20.080Z,90.30
2022-09-11T02:58:18.014Z,90.43
2022-09-11T03:01:10.962Z,90.38
2022-09-11T03:04:03.038Z,90.25
2022-09-11T03:06:55.284Z,90.27
2022-09-11T03:09:47.335Z,90.46
2022-09-11T03:12:39.899Z,90.74
2022-09-11T03:15:31.949Z,90.72
2022-09-11T03:18:23.261Z,90.56
2022-09-11T03:21:16.851Z,90.72
2022-09-11T03:24:10.233Z,90.57
2022-09-11T03:27:02.674Z,90.58
2022-09-11T03:29:56.308Z,90.54
2022-09-11T03:32:49.243Z,90.67
2022-09-11T03:35:41.464Z,90.94
2022-09-11T03:38:34.057Z,90.72
2022-09-11T03:41:26.682Z,90.68
2022-09-11T03:44:19.419Z,90.78
2022-09-11T03:47:12.219Z,90.56
2022-09-11T03:50:04.610Z,90.71
2022-09-11T03:52:56.969Z,90.80
2022-09-11T03:55:50.296Z,90.92
2022-09-11T03:58:43.316Z,91.15
2022-09-11T04:01:35.708Z,91.20
2022-09-11T04:04:28.069Z,91.04
2022-09-11T04:07:03.110Z,91.13
2022-09-11T04:09:55.366Z,91.00
2022-09-11T04:12:47.965Z,90.96
2022-09-11T04:15:40.114Z,90.68
2022-09-11T04:18:32.924Z,90.72
2022-09-11T04:21:18.430Z,90.55
2022-09-11T04:24:12.951Z,90.46
2022-09-11T04:27:05.737Z,90.52
2022-09-11T04:29:58.058Z,90.37
2022-09-11T04:32:44.349Z,90.31
2022-09-11T04:35:40.610Z,90.23
2022-09-11T04:38:33.982Z,90.27
2022-09-11T04:41:27.834Z,90.32
2022-09-11T04:44:20.847Z,90.25
2022-09-11T04:47:13.239Z,90.17
2022-09-11T04:50:05.998Z,89.93
2022-09-11T04:52:58.322Z,89.85
2022-09-11T04:55:51.159Z,89.76
2022-09-11T04:58:43.816Z,89.78
2022-09-11T05:01:36.432Z,89.78
2022-09-11T05:04:28.782Z,89.90
2022-09-11T05:07:21.104Z,89.50
2022-09-11T05:10:13.434Z,89.29
2022-09-11T05:12:59.066Z,89.28
2022-09-11T05:15:51.374Z,88.65
2022-09-11T05:18:50.446Z,88.58
2022-09-11T05:21:42.873Z,88.38
2022-09-11T05:24:35.337Z,88.29
2022-09-11T05:27:27.119Z,88.45
2022-09-11T05:30:19.498Z,88.20
2022-09-11T05:33:14.406Z,87.77
2022-09-11T05:36:08.439Z,86.93
2022-09-11T05:39:01.505Z,86.73
2022-09-11T05:41:55.397Z,86.66
2022-09-11T05:44:48.373Z,86.54
2022-09-11T05:47:40.590Z,86.44
2022-09-11T05:50:33.279Z,86.25
2022-09-11T05:53:10.229Z,86.11
2022-09-11T05:56:09.331Z,86.09
2022-09-11T05:59:02.550Z,86.02
2022-09-11T06:01:54.946Z,85.63
2022-09-11T06:04:47.219Z,85.36
2022-09-11T06:07:39.311Z,85.09
2022-09-11T06:10:31.690Z,84.56
2022-09-11T06:13:24.054Z,84.79
2022-09-11T06:16:19.058Z,84.58
2022-09-11T06:19:11.541Z,84.97
2022-09-11T06:22:03.645Z,84.73
2022-09-11T06:24:55.887Z,84.77
2022-09-11T06:27:47.010Z,84.89
2022-09-11T06:30:29.383Z,84.91
2022-09-11T06:33:21.709Z,84.88
2022-09-11T06:36:09.560Z,84.91
2022-09-11T06:39:02.393Z,85.16
2022-09-11T06:41:55.018Z,84.71
2022-09-11T06:44:47.622Z,84.21
2022-09-11T06:47:42.522Z,84.21
2022-09-11T06:50:40.986Z,84.01
2022-09-11T06:53:33.381Z,84.23
2022-09-11T06:56:13.649Z,83.73
2022-09-11T06:59:05.945Z,83.49
2022-09-11T07:01:51.927Z,83.34
2022-09-11T07:04:44.353Z,83.71
2022-09-11T07:07:36.611Z,83.80
2022-09-11T07:10:29.448Z,83.96
2022-09-11T07:13:24.406Z,84.24
2022-09-11T07:16:12.230Z,84.04
2022-09-11T07:19:05.087Z,84.17
2022-09-11T07:21:49.610Z,84.09
2022-09-11T07:24:42.056Z,84.00
2022-09-11T07:27:34.488Z,84.03
2022-09-11T07:30:27.243Z,83.83
2022-09-11T07:33:19.699Z,84.21
2022-09-11T07:36:12.627Z,84.34
2022-09-11T07:39:05.191Z,84.28
2022-09-11T07:41:57.804Z,84.20
2022-09-11T07:44:50.786Z,84.06
2022-09-11T07:47:43.351Z,83.66
2022-09-11T07:50:25.681Z,84.17
2022-09-11T07:53:18.384Z,84.35
2022-09-11T07:56:13.081Z,84.42
2022-09-11T07:58:56.912Z,84.29
2022-09-11T08:01:50.245Z,84.50
2022-09-11T08:04:42.418Z,84.33
2022-09-11T08:07:35.474Z,84.72
2022-09-11T08:10:28.252Z,85.33
2022-09-11T08:13:20.789Z,85.89
2022-09-11T08:16:13.070Z,86.23
2022-09-11T08:19:08.092Z,86.50
2022-09-11T08:22:00.383Z,86.03
2022-09-11T08:24:52.592Z,85.18
2022-09-11T08:27:44.926Z,84.35
2022-09-11T08:30:38.660Z,83.69
2022-09-11T08:33:20.848Z,82.98
2022-09-11T08:36:15.247Z,82.55
2022-09-11T08:39:09.084Z,81.64
2022-09-11T08:42:08.720Z,81.54
2022-09-11T08:45:02.270Z,81.30
2022-09-11T08:47:54.710Z,81.44
2022-09-11T08:50:47.795Z,80.80
2022-09-11T08:53:40.438Z,80.97
2022-09-11T08:56:36.386Z,80.80
2022-09-11T08:59:39.903Z,80.08
2022-09-11T09:02:51.703Z,79.57
2022-09-11T09:05:41.741Z,78.47
2022-09-11T09:08:44.904Z,78.30
2022-09-11T09:11:37.307Z,78.76
2022-09-11T09:14:43.651Z,79.70
2022-09-11T09:17:42.311Z,79.78
2022-09-11T09:20:37.401Z,79.60
2022-09-11T09:23:33.841Z,78.99
2022-09-11T09:26:20.997Z,78.64
2022-09-11T09:29:22.212Z,77.34
2022-09-11T09:32:21.031Z,75.99
2022-09-11T09:35:20.512Z,75.90
2022-09-11T09:38:18.579Z,74.48
2022-09-11T09:41:18.237Z,74.76
2022-09-11T09:44:05.015Z,73.64
2022-09-11T09:46:57.678Z,74.31
2022-09-11T09:49:51.577Z,74.52
2022-09-11T09:52:36.178Z,73.92
2022-09-11T09:55:28.919Z,74.08
2022-09-11T09:58:27.254Z,73.55
2022-09-11T10:01:44.861Z,73.59
2022-09-11T10:04:30.326Z,72.88
2022-09-11T10:07:24.666Z,72.36
2022-09-11T10:10:26.713Z,71.78
2022-09-11T10:13:25.479Z,71.54
2022-09-11T10:16:25.078Z,71.00
2022-09-11T10:19:39.694Z,71.52
2022-09-11T10:22:32.926Z,71.92
2022-09-11T10:25:26.823Z,72.22
2022-09-11T10:28:24.110Z,73.66
2022-09-11T10:31:18.687Z,74.26
2022-09-11T10:34:03.026Z,75.05
2022-09-11T10:37:00.560Z,75.03
2022-09-11T10:39:54.119Z,75.01
2022-09-11T10:42:41.472Z,73.93
2022-09-11T10:45:25.395Z,72.22
2022-09-11T10:48:24.625Z,72.22
2022-09-11T10:51:11.819Z,71.45
2022-09-11T10:54:26.261Z,68.98
2022-09-11T10:57:24.797Z,68.63
2022-09-11T11:00:20.491Z,67.98
2022-09-11T11:03:17.778Z,69.03
2022-09-11T11:06:25.882Z,70.67
2022-09-11T11:09:31.141Z,71.69
2022-09-11T11:12:34.331Z,71.79
2022-09-11T11:15:49.541Z,72.12
2022-09-11T11:19:04.234Z,72.42
2022-09-11T11:22:08.573Z,72.51
2022-09-11T11:24:56.231Z,72.12
2022-09-11T11:28:06.581Z,71.76
2022-09-11T11:31:11.393Z,71.06
2022-09-11T11:34:21.542Z,70.11
2022-09-11T11:37:17.007Z,68.84
2022-09-11T11:40:17.737Z,68.08
2022-09-11T11:43:13.350Z,67.92
2022-09-11T11:46:15.665Z,65.54
2022-09-11T11:49:12.237Z,64.78
2022-09-11T11:52:14.320Z,65.01
2022-09-11T11:55:16.971Z,65.49
2022-09-11T11:58:20.511Z,66.34
2022-09-11T12:01:18.451Z,66.12
2022-09-11T12:04:21.210Z,64.22
2022-09-11T12:07:22.688Z,62.66
2022-09-11T12:10:28.827Z,62.31
2022-09-11T12:13:21.442Z,63.36
2022-09-11T12:16:21.417Z,64.22
2022-09-11T12:19:20.871Z,65.18
2022-09-11T12:22:33.011Z,65.12
2022-09-11T12:25:53.711Z,64.85
2022-09-11T12:28:45.705Z,64.00
2022-09-11T12:31:48.594Z,63.30
2022-09-11T12:35:02.368Z,63.10
2022-09-11T12:38:02.727Z,63.29
2022-09-11T12:41:00.055Z,64.48
2022-09-11T12:43:53.765Z,65.38
2022-09-11T12:47:13.885Z,65.32
2022-09-11T12:50:06.127Z,65.69
2022-09-11T12:53:02.525Z,66.39
2022-09-11T12:56:00.017Z,64.89
2022-09-11T12:58:54.885Z,64.54
2022-09-11T13:01:49.972Z,64.16
2022-09-11T13:04:33.412Z,64.17
2022-09-11T13:07:41.503Z,64.60
2022-09-11T13:10:37.729Z,65.05
2022-09-11T13:13:44.707Z,64.53
2022-09-11T13:16:37.147Z,65.13
2022-09-11T13:19:37.481Z,66.48
2022-09-11T13:22:31.256Z,66.81
2022-09-11T13:25:26.599Z,68.64
2022-09-11T13:28:25.441Z,70.23
2022-09-11T13:31:21.525Z,71.32
2022-09-11T13:34:20.234Z,72.86
2022-09-11T13:37:13.961Z,74.13
2022-09-11T13:40:09.409Z,75.72
2022-09-11T13:43:02.143Z,77.52
2022-09-11T13:46:11.677Z,78.68
2022-09-11T13:49:27.490Z,79.68
2022-09-11T13:52:23.138Z,80.08
2022-09-11T13:55:20.212Z,80.75
2022-09-11T13:58:25.441Z,81.47
2022-09-11T14:01:17.908Z,81.88
2022-09-11T14:04:27.309Z,82.33
2022-09-11T14:07:22.322Z,82.68
2022-09-11T14:10:24.596Z,82.59
2022-09-11T14:13:15.244Z,82.26
2022-09-11T14:16:09.678Z,81.72
2022-09-11T14:19:08.728Z,81.15
2022-09-11T14:22:03.190Z,80.54
2022-09-11T14:25:03.004Z,80.79
2022-09-11T14:27:48.430Z,80.66
2022-09-11T14:30:37.632Z,80.98
2022-09-11T14:33:29.889Z,80.44
2022-09-11T14:36:22.801Z,80.13
2022-09-11T14:39:19.853Z,80.32
2022-09-11T14:42:16.230Z,80.47
2022-09-11T14:45:22.353Z,81.22
2022-09-11T14:48:14.637Z,81.31
2022-09-11T14:50:57.365Z,81.08
2022-09-11T14:53:49.428Z,81.42
2022-09-11T14:56:41.463Z,81.09
2022-09-11T14:59:33.542Z,80.98
2022-09-11T15:02:27.408Z,81.25
2022-09-11T15:05:23.032Z,81.26
2022-09-11T15:08:05.673Z,81.44
2022-09-11T15:10:57.725Z,81.20
2022-09-11T15:14:11.308Z,81.06
2022-09-11T15:17:03.183Z,81.27
2022-09-11T15:19:38.921Z,81.49
2022-09-11T15:22:31.567Z,81.40
2022-09-11T15:25:23.921Z,81.23
2022-09-11T15:28:16.050Z,81.44
2022-09-11T15:31:11.163Z,81.54
2022-09-11T15:34:07.487Z,81.40
2022-09-11T15:37:00.357Z,81.32
2022-09-11T15:39:53.281Z,81.36
2022-09-11T15:42:45.285Z,81.38
2022-09-11T15:45:44.521Z,81.59
2022-09-11T15:48:19.616Z,81.57
2022-09-11T15:51:03.248Z,81.68
2022-09-11T15:53:37.977Z,82.09
2022-09-11T15:56:26.024Z,82.11
2022-09-11T15:59:17.766Z,82.29
2022-09-11T16:02:04.176Z,82.18
2022-09-11T16:04:56.278Z,80.58
2022-09-11T16:07:49.724Z,80.30
2022-09-11T16:10:43.854Z,80.38
2022-09-11T16:13:29.422Z,81.00
2022-09-11T16:16:21.598Z,81.44
2022-09-11T16:19:07.405Z,82.03
2022-09-11T16:22:02.266Z,82.38
2022-09-11T16:24:38.307Z,82.81
2022-09-11T16:27:24.471Z,83.24
2022-09-11T16:30:41.535Z,83.36
2022-09-11T16:33:29.691Z,83.61
2022-09-11T16:36:22.799Z,83.98
2022-09-11T16:39:07.139Z,84.44
2022-09-11T16:41:59.179Z,84.70
2022-09-11T16:44:51.444Z,85.01
2022-09-11T16:47:35.308Z,85.51
2022-09-11T16:50:27.603Z,85.67
2022-09-11T16:53:19.573Z,85.71
2022-09-11T16:56:01.511Z,85.64
2022-09-11T16:58:54.611Z,85.77
2022-09-11T17:01:41.022Z,85.76
2022-09-11T17:04:33.351Z,85.91
2022-09-11T17:07:05.451Z,85.96
2022-09-11T17:09:57.455Z,86.06
2022-09-11T17:12:50.161Z,85.91
2022-09-11T17:15:25.404Z,85.88
2022-09-11T17:18:17.900Z,86.00
2022-09-11T17:21:07.254Z,85.85
2022-09-11T17:24:00.321Z,85.70
2022-09-11T17:26:42.790Z,85.78
2022-09-11T17:29:27.668Z,85.95
2022-09-11T17:32:29.348Z,85.74
2022-09-11T17:35:21.484Z,85.85
2022-09-11T17:38:13.519Z,85.96
2022-09-11T17:41:06.403Z,85.93
2022-09-11T17:43:51.180Z,85.98
2022-09-11T17:46:36.401Z,85.90
2022-09-11T17:49:15.954Z,86.07
2022-09-11T17:52:08.187Z,86.08
2022-09-11T17:54:46.505Z,86.12
2022-09-11T17:57:26.563Z,86.13
2022-09-11T18:00:19.674Z,86.16
2022-09-11T18:03:00.810Z,85.97
2022-09-11T18:05:41.681Z,86.19
2022-09-11T18:08:34.573Z,86.04
2022-09-11T18:11:19.746Z,86.11
2022-09-11T18:13:51.788Z,86.30
2022-09-11T18:16:46.992Z,86.17
2022-09-11T18:19:28.294Z,86.27
2022-09-11T18:22:09.840Z,86.58
2022-09-11T18:25:02.105Z,86.81
2022-09-11T18:27:52.783Z,87.12
2022-09-11T18:30:46.042Z,87.15
2022-09-11T18:33:38.066Z,87.26
2022-09-11T18:36:23.606Z,87.44
2022-09-11T18:39:05.876Z,87.87
2022-09-11T18:42:00.022Z,87.79
2022-09-11T18:44:34.670Z,87.77
2022-09-11T18:47:27.906Z,88.19
2022-09-11T18:50:20.146Z,88.23
2022-09-11T18:53:13.363Z,88.34
2022-09-11T18:56:07.952Z,88.20
2022-09-11T18:59:01.320Z,87.90
2022-09-11T19:01:33.559Z,87.63
2022-09-11T19:04:26.928Z,87.65
2022-09-11T19:07:18.887Z,87.55
2022-09-11T19:09:54.494Z,87.48
2022-09-11T19:12:39.176Z,87.13
2022-09-11T19:15:31.668Z,87.06
2022-09-11T19:18:23.918Z,87.00
2022-09-11T19:21:18.462Z,86.89
2022-09-11T19:24:10.587Z,86.88
2022-09-11T19:26:55.363Z,86.91
2022-09-11T19:29:50.424Z,86.71
2022-09-11T19:32:42.492Z,86.45
2022-09-11T19:35:27.497Z,86.25
2022-09-11T19:38:21.362Z,85.99
2022-09-11T19:41:15.187Z,85.72
2022-09-11T19:43:50.857Z,85.58
2022-09-11T19:46:43.060Z,85.49
2022-09-11T19:49:18.454Z,85.44
2022-09-11T19:52:11.998Z,85.18
2022-09-11T19:55:03.958Z,84.97
2022-09-11T19:57:44.650Z,85.05
2022-09-11T20:00:39.471Z,85.12
2022-09-11T20:03:11.413Z,84.87
2022-09-11T20:06:03.927Z,84.99
2022-09-11T20:08:50.284Z,84.72
2022-09-11T20:11:42.368Z,84.76
2022-09-11T20:14:34.491Z,85.05
2022-09-11T20:17:27.200Z,85.12
2022-09-11T20:20:19.452Z,85.36
2022-09-11T20:23:01.360Z,85.53
2022-09-11T20:25:46.275Z,85.61
2022-09-11T20:28:28.158Z,85.76
2022-09-11T20:31:22.523Z,85.69
2022-09-11T20:33:55.018Z,85.62
2022-09-11T20:36:47.523Z,85.52
2022-09-11T20:39:27.046Z,85.65
2022-09-11T20:42:01.364Z,85.69
2022-09-11T20:44:37.186Z,85.66
2022-09-11T20:47:19.586Z,85.67
2022-09-11T20:50:13.397Z,85.69
2022-09-11T20:53:05.441Z,85.58
2022-09-11T20:56:03.231Z,85.49
2022-09-11T20:58:48.339Z,85.46
2022-09-11T21:01:22.915Z,85.49
2022-09-11T21:04:14.947Z,85.76
2022-09-11T21:06:51.504Z,85.84
2022-09-11T21:09:34.466Z,85.80
2022-09-11T21:12:27.682Z,85.83
2022-09-11T21:15:19.988Z,85.76
2022-09-11T21:18:12.338Z,85.78
2022-09-11T21:20:56.962Z,85.75
2022-09-11T21:23:32.060Z,85.91
2022-09-11T21:26:26.213Z,85.89
2022-09-11T21:29:18.567Z,85.95
2022-09-11T21:32:10.592Z,86.24
2022-09-11T21:35:02.720Z,86.38
2022-09-11T21:37:54.849Z,86.62
2022-09-11T21:40:46.922Z,86.76
2022-09-11T21:43:41.074Z,86.84
2022-09-11T21:46:33.205Z,86.93
2022-09-11T21:49:15.123Z,87.30
2022-09-11T21:51:49.622Z,87.55
2022-09-11T21:54:32.551Z,87.70
2022-09-11T21:57:08.020Z,87.72
2022-09-11T22:00:00.501Z,87.76
2022-09-11T22:02:52.543Z,87.86
2022-09-11T22:05:46.533Z,88.02
2022-09-11T22:08:41.280Z,87.89
2022-09-11T22:11:33.333Z,88.00
2022-09-11T22:14:07.138Z,88.10
2022-09-11T22:16:59.424Z,88.17
2022-09-11T22:19:52.485Z,88.04
2022-09-11T22:22:44.757Z,87.97
2022-09-11T22:25:37.724Z,88.20
2022-09-11T22:28:30.365Z,88.11
2022-09-11T22:31:24.848Z,87.93
2022-09-11T22:34:16.784Z,87.95
2022-09-11T22:37:08.797Z,88.16
2022-09-11T22:39:51.741Z,88.20
2022-09-11T22:42:44.190Z,88.06
2022-09-11T22:45:36.551Z,87.97
2022-09-11T22:48:28.668Z,88.00
2022-09-11T22:51:20.862Z,87.98
2022-09-11T22:54:15.326Z,87.96
2022-09-11T22:57:07.769Z,87.73
2022-09-11T22:59:49.809Z,87.74
2022-09-11T23:02:42.010Z,87.35
2022-09-11T23:05:52.030Z,87.22
2022-09-11T23:08:45.804Z,87.18
2022-09-11T23:11:38.016Z,86.98
2022-09-11T23:14:30.152Z,86.93
2022-09-11T23:17:22.181Z,86.86
2022-09-11T23:20:14.324Z,86.70
2022-09-11T23:22:56.381Z,86.61
2022-09-11T23:25:48.451Z,86.76
2022-09-11T23:28:41.440Z,86.58
2022-09-11T23:31:25.272Z,86.40
2022-09-11T23:33:59.473Z,86.32
2022-09-11T23:36:51.562Z,86.33
2022-09-11T23:39:45.289Z,86.15
2022-09-11T23:42:37.273Z,86.19
2022-09-11T23:45:29.514Z,85.98
2022-09-11T23:48:21.599Z,85.78
2022-09-11T23:51:13.738Z,85.62
2022-09-11T23:54:06.015Z,85.69
2022-09-11T23:56:58.095Z,85.01
2022-09-11T23:59:50.054Z,85.05
